Time;durP1;ratioP1;P1;durP2;ratioP2;P2;SDS_P1;SDS_P2;PMS_P1;PMS_P2;Temp;Humidity;BMP_temperature;BMP_pressure;BME280_temperature;BME280_humidity;BME280_pressure;Samples;Min_cycle;Max_cycle;Signal;HPM_P1;HPM_P2
2021/09/17 00:01:46;;;;;;;6.15;2.65;;;;;;;15.73;100.00;100482.31;5017504;28;20529;-81
2021/09/17 00:04:12;;;;;;;4.97;2.33;;;;;;;15.71;100.00;100481.47;5031706;28;20045;-80
2021/09/17 00:06:39;;;;;;;4.45;2.40;;;;;;;15.75;100.00;100486.63;5034769;28;20041;-81
2021/09/17 00:09:08;;;;;;;4.95;2.60;;;;;;;15.72;100.00;100476.13;5054770;28;20676;-80
2021/09/17 00:11:38;;;;;;;5.63;2.58;;;;;;;15.70;100.00;100477.09;5053185;28;20127;-82
2021/09/17 00:14:04;;;;;;;4.50;2.83;;;;;;;15.82;100.00;100475.69;5018888;28;20043;-80
2021/09/17 00:16:31;;;;;;;6.60;2.30;;;;;;;15.72;100.00;100475.22;5038793;28;20048;-80
2021/09/17 00:18:58;;;;;;;2.60;2.08;;;;;;;15.70;100.00;100469.09;5051841;28;20052;-79
2021/09/17 00:21:24;;;;;;;5.15;2.40;;;;;;;15.69;100.00;100464.72;5048210;28;20033;-81
2021/09/17 00:23:51;;;;;;;2.60;1.70;;;;;;;15.68;100.00;100468.31;5037368;28;20037;-81
2021/09/17 00:26:18;;;;;;;4.55;2.53;;;;;;;15.70;100.00;100459.31;5051109;28;20048;-81
2021/09/17 00:28:46;;;;;;;2.53;1.85;;;;;;;15.68;100.00;100468.31;5017603;28;20687;-80
2021/09/17 00:31:13;;;;;;;4.10;2.00;;;;;;;15.60;100.00;100457.97;5035168;28;20044;-80
2021/09/17 00:33:40;;;;;;;4.13;2.90;;;;;;;15.59;100.00;100458.91;5019702;28;20059;-81
2021/09/17 00:36:07;;;;;;;3.75;2.17;;;;;;;15.56;100.00;100461.72;5035609;28;20071;-81
2021/09/17 00:38:34;;;;;;;3.53;2.20;;;;;;;15.49;100.00;100453.13;5031775;28;20076;-80
2021/09/17 00:41:00;;;;;;;4.43;3.05;;;;;;;15.46;100.00;100452.38;5053426;28;20037;-80
2021/09/17 00:43:27;;;;;;;4.00;2.45;;;;;;;15.46;100.00;100457.69;5047462;28;20441;-80
2021/09/17 00:45:54;;;;;;;5.80;3.38;;;;;;;15.41;100.00;100457.91;5033499;28;20051;-79
2021/09/17 00:48:20;;;;;;;3.33;2.40;;;;;;;15.36;100.00;100454.56;5035372;28;20037;-80
2021/09/17 00:50:47;;;;;;;4.30;2.45;;;;;;;15.33;100.00;100452.06;5015612;28;20052;-79
2021/09/17 00:53:14;;;;;;;3.15;2.53;;;;;;;15.35;100.00;100447.53;5012399;28;20654;-80
2021/09/17 00:55:40;;;;;;;5.30;2.63;;;;;;;15.12;100.00;100450.31;5032965;28;20048;-80
2021/09/17 00:58:07;;;;;;;3.35;2.63;;;;;;;15.23;100.00;100447.22;5023449;28;20080;-82
2021/09/17 01:00:34;;;;;;;4.57;2.50;;;;;;;15.29;100.00;100449.59;5033654;28;20041;-79
2021/09/17 01:03:00;;;;;;;4.95;2.70;;;;;;;15.28;100.00;100451.38;5036213;28;20401;-80
2021/09/17 01:05:27;;;;;;;5.50;2.63;;;;;;;15.25;100.00;100448.88;5052536;28;20045;-80
2021/09/17 01:07:54;;;;;;;4.05;2.60;;;;;;;15.20;100.00;100451.72;5021413;28;20041;-80
2021/09/17 01:10:21;;;;;;;5.35;2.97;;;;;;;15.18;100.00;100448.25;5034582;28;20046;-81
2021/09/17 01:12:47;;;;;;;4.00;2.65;;;;;;;15.17;100.00;100448.31;5030063;28;20051;-79
2021/09/17 01:15:14;;;;;;;3.38;2.80;;;;;;;15.16;100.00;100455.44;5038645;28;20045;-80
2021/09/17 01:17:43;;;;;;;4.47;3.22;;;;;;;15.12;100.00;100444.97;5017078;28;20044;-80
2021/09/17 01:20:13;;;;;;;3.72;2.65;;;;;;;15.19;100.00;100447.31;5038961;28;20502;-81
2021/09/17 01:22:40;;;;;;;3.67;2.90;;;;;;;15.20;100.00;100448.19;5038769;28;20038;-80
2021/09/17 01:25:13;;;;;;;5.95;3.22;;;;;;;15.19;100.00;100449.97;5038473;28;20052;-80
2021/09/17 01:27:44;;;;;;;5.15;3.00;;;;;;;15.14;100.00;100446.66;5013971;28;20039;-81
2021/09/17 01:30:13;;;;;;;4.20;3.00;;;;;;;15.08;100.00;100452.25;5018157;28;20175;-81
2021/09/17 01:32:41;;;;;;;4.28;2.92;;;;;;;15.11;100.00;100443.25;5048884;28;20793;-80
2021/09/17 01:35:14;;;;;;;4.88;3.38;;;;;;;15.10;100.00;100444.19;5025610;28;20053;-81
2021/09/17 01:37:41;;;;;;;4.80;3.30;;;;;;;15.07;100.00;100442.53;5018160;28;20041;-81
2021/09/17 01:40:09;;;;;;;4.03;2.75;;;;;;;15.10;100.00;100438.88;5024220;28;20052;-82
2021/09/17 01:42:35;;;;;;;5.55;3.63;;;;;;;15.07;100.00;100439.00;5019613;28;20494;-80
2021/09/17 01:45:04;;;;;;;6.28;2.85;;;;;;;14.96;100.00;100442.09;5035218;28;20049;-80
2021/09/17 01:47:30;;;;;;;4.70;2.60;;;;;;;14.97;100.00;100440.34;5052557;28;20064;-81
2021/09/17 01:49:57;;;;;;;4.75;3.10;;;;;;;15.11;100.00;100430.81;5008370;28;20044;-80
2021/09/17 01:52:24;;;;;;;6.78;2.60;;;;;;;15.02;100.00;100441.84;5034378;28;20126;-81
2021/09/17 01:54:51;;;;;;;3.63;2.50;;;;;;;15.06;100.00;100442.59;5049266;28;20049;-81
2021/09/17 01:57:18;;;;;;;7.95;2.92;;;;;;;15.02;100.00;100447.16;5033722;28;20045;-81
2021/09/17 01:59:45;;;;;;;4.47;3.40;;;;;;;14.98;100.00;100447.38;5032376;28;20036;-80
2021/09/17 02:02:11;;;;;;;2.90;2.53;;;;;;;14.96;100.00;100442.09;5015280;28;20050;-80
2021/09/17 02:05:13;;;;;;;5.65;2.90;;;;;;;14.93;100.00;100436.91;5022972;28;20036;-81
2021/09/17 02:07:40;;;;;;;3.25;2.83;;;;;;;14.93;100.00;100439.56;5030827;28;20486;-80
2021/09/17 02:10:07;;;;;;;5.38;2.70;;;;;;;14.90;100.00;100440.59;5036250;28;20049;-81
2021/09/17 02:12:34;;;;;;;5.13;2.60;;;;;;;14.86;100.00;100440.75;5050590;28;20348;-81
2021/09/17 02:15:03;;;;;;;3.42;2.40;;;;;;;14.90;100.00;100432.59;5037176;28;20073;-80
2021/09/17 02:17:31;;;;;;;3.95;2.90;;;;;;;14.88;100.00;100439.78;5031576;28;20048;-81
2021/09/17 02:19:58;;;;;;;5.63;3.03;;;;;;;14.90;100.00;100434.41;5027903;28;20139;-81
2021/09/17 02:22:25;;;;;;;6.18;3.00;;;;;;;14.88;100.00;100433.56;5020835;28;20048;-82
2021/09/17 02:24:52;;;;;;;6.38;2.60;;;;;;;14.87;100.00;100427.38;5037102;28;20060;-83
2021/09/17 02:27:19;;;;;;;4.70;2.72;;;;;;;14.84;100.00;100427.53;5003421;28;20045;-81
2021/09/17 02:29:46;;;;;;;4.43;2.38;;;;;;;14.82;100.00;100424.06;5041516;28;20045;-82
2021/09/17 02:32:13;;;;;;;5.25;2.45;;;;;;;14.83;100.00;100425.81;5038638;28;20634;-80
2021/09/17 02:34:40;;;;;;;3.75;2.45;;;;;;;14.79;100.00;100421.53;5040620;28;20041;-81
2021/09/17 02:37:07;;;;;;;6.32;2.80;;;;;;;14.84;100.00;100424.00;5038539;28;20521;-80
2021/09/17 02:39:34;;;;;;;3.63;2.28;;;;;;;14.82;100.00;100424.06;5054165;28;20050;-80
2021/09/17 02:42:02;;;;;;;3.80;2.53;;;;;;;14.78;100.00;100418.94;5035877;28;20108;-81
2021/09/17 02:44:28;;;;;;;5.07;2.95;;;;;;;14.79;100.00;100426.84;5025751;28;20045;-80
2021/09/17 02:46:55;;;;;;;3.30;2.42;;;;;;;14.79;100.00;100424.19;5037607;28;20059;-80
2021/09/17 02:49:22;;;;;;;4.13;2.83;;;;;;;14.84;100.00;100432.84;5015427;28;20128;-81
2021/09/17 02:51:48;;;;;;;4.00;2.40;;;;;;;14.81;100.00;100417.03;5021624;28;21849;-80
2021/09/17 02:54:15;;;;;;;3.75;2.28;;;;;;;14.79;100.00;100423.31;5036834;28;20052;-80
2021/09/17 02:56:42;;;;;;;7.70;3.22;;;;;;;14.82;100.00;100412.56;5053438;28;20127;-80
2021/09/17 02:59:08;;;;;;;2.95;2.17;;;;;;;14.80;100.00;100423.28;5035840;28;20750;-81
2021/09/17 03:01:35;;;;;;;4.25;2.13;;;;;;;14.81;100.00;100424.16;5020576;28;20509;-81
2021/09/17 03:04:02;;;;;;;4.57;2.47;;;;;;;14.76;100.00;100413.69;5031329;28;20064;-82
2021/09/17 03:06:29;;;;;;;3.70;2.33;;;;;;;14.75;100.00;100414.63;5053663;28;20037;-82
2021/09/17 03:08:55;;;;;;;7.65;2.42;;;;;;;14.73;100.00;100412.97;5053607;28;20033;-81
2021/09/17 03:11:22;;;;;;;4.32;2.20;;;;;;;14.70;100.00;100408.63;5056306;28;20041;-81
2021/09/17 03:13:49;;;;;;;2.28;2.00;;;;;;;14.70;100.00;100402.44;5042210;28;20059;-83
2021/09/17 03:16:15;;;;;;;4.28;2.30;;;;;;;14.70;100.00;100410.41;5043792;28;20044;-80
2021/09/17 03:18:42;;;;;;;2.78;2.40;;;;;;;14.71;100.00;100412.13;5038907;28;20071;-81
2021/09/17 03:21:09;;;;;;;4.00;2.33;;;;;;;14.70;100.00;100405.09;5038667;28;20041;-81
2021/09/17 03:23:35;;;;;;;3.53;2.13;;;;;;;14.69;100.00;100408.69;5039436;28;20037;-81
2021/09/17 03:26:02;;;;;;;3.65;2.38;;;;;;;14.70;100.00;100413.06;5028823;28;20048;-81
2021/09/17 03:28:29;;;;;;;3.92;2.55;;;;;;;14.69;100.00;100404.22;5038718;28;20086;-82
2021/09/17 03:30:55;;;;;;;4.15;2.55;;;;;;;14.72;100.00;100400.59;5022624;28;20036;-80
2021/09/17 03:33:22;;;;;;;3.92;2.67;;;;;;;14.75;100.00;100400.47;5040275;28;20040;-80
2021/09/17 03:35:49;;;;;;;5.32;2.80;;;;;;;14.72;100.00;100400.59;5038527;28;20051;-82
2021/09/17 03:38:15;;;;;;;3.72;2.10;;;;;;;14.77;100.00;100398.59;5061610;28;20044;-81
2021/09/17 03:40:42;;;;;;;4.05;2.40;;;;;;;14.70;100.00;100399.78;5032358;28;20437;-82
2021/09/17 03:43:09;;;;;;;4.07;2.15;;;;;;;14.78;100.00;100390.53;5035477;28;20387;-82
2021/09/17 03:45:36;;;;;;;2.63;2.00;;;;;;;14.79;100.00;100402.03;5054983;28;20040;-81
2021/09/17 03:48:08;;;;;;;3.85;2.10;;;;;;;14.75;100.00;100397.81;5038036;28;20049;-80
2021/09/17 03:50:34;;;;;;;3.17;1.90;;;;;;;14.67;100.00;100399.91;5056277;28;20091;-81
2021/09/17 03:53:02;;;;;;;2.88;1.77;;;;;;;14.63;100.00;100399.19;5027826;28;20533;-81
2021/09/17 03:55:29;;;;;;;2.13;1.52;;;;;;;14.61;100.00;100393.03;5037001;28;20048;-81
2021/09/17 03:57:55;;;;;;;3.03;1.58;;;;;;;14.64;100.00;100404.44;5058752;28;20044;-80
2021/09/17 04:00:22;;;;;;;2.00;1.38;;;;;;;14.53;100.00;100401.34;5043631;28;20044;-80
2021/09/17 04:02:49;;;;;;;2.67;1.50;;;;;;;14.48;100.00;100411.31;5022951;28;20040;-80
2021/09/17 04:05:28;;;;;;;3.58;1.40;;;;;;;14.44;100.00;100412.31;5021878;28;20128;-80
2021/09/17 04:07:55;;;;;;;3.35;1.60;;;;;;;14.38;100.00;100407.25;4986581;28;20100;-82
2021/09/17 04:10:22;;;;;;;3.85;1.40;;;;;;;14.40;100.00;100409.84;4976169;28;20049;-80
2021/09/17 04:12:50;;;;;;;3.28;1.50;;;;;;;14.40;100.00;100402.75;4989357;28;20089;-81
2021/09/17 04:15:16;;;;;;;1.30;1.20;;;;;;;14.29;100.00;100415.56;4957803;28;20047;-80
2021/09/17 04:17:44;;;;;;;2.10;1.38;;;;;;;14.28;100.00;100420.03;4940843;28;20053;-82
2021/09/17 04:20:11;;;;;;;2.45;1.95;;;;;;;14.29;100.00;100412.91;4976419;28;20054;-80
2021/09/17 04:22:38;;;;;;;2.78;1.35;;;;;;;14.29;100.00;100400.53;4964242;28;20094;-81
2021/09/17 04:25:09;;;;;;;2.70;1.20;;;;;;;14.23;100.00;100402.56;4947595;28;21052;-80
2021/09/17 04:27:35;;;;;;;1.48;1.38;;;;;;;14.30;100.00;100406.69;4976342;28;20125;-80
2021/09/17 04:30:08;;;;;;;3.42;1.45;;;;;;;14.28;100.00;100408.53;4975666;28;20109;-80
2021/09/17 04:32:35;;;;;;;1.95;1.55;;;;;;;14.20;100.00;100407.97;4961945;28;20043;-82
2021/09/17 04:35:03;;;;;;;2.40;1.35;;;;;;;14.19;100.00;100406.25;4985760;28;20066;-81
2021/09/17 04:37:30;;;;;;;2.97;1.30;;;;;;;14.17;100.00;100411.63;4971924;28;20047;-80
2021/09/17 04:39:57;;;;;;;2.58;1.45;;;;;;;14.18;100.00;100409.81;4963937;28;20054;-81
2021/09/17 04:42:24;;;;;;;2.20;1.30;;;;;;;14.19;100.00;100411.56;4938602;28;20411;-79
2021/09/17 04:44:51;;;;;;;2.03;1.23;;;;;;;14.09;100.00;100408.41;4980889;28;20038;-80
2021/09/17 04:47:17;;;;;;;3.15;1.30;;;;;;;14.05;100.00;100415.63;4954913;28;20042;-82
2021/09/17 04:49:44;;;;;;;1.65;1.30;;;;;;;14.08;100.00;100412.84;4975212;28;20178;-81
2021/09/17 04:52:11;;;;;;;2.55;1.20;;;;;;;14.02;100.00;100420.19;4987994;28;20051;-82
2021/09/17 04:54:38;;;;;;;1.02;0.93;;;;;;;14.06;100.00;100420.00;4951095;28;20039;-81
2021/09/17 04:57:05;;;;;;;3.45;1.30;;;;;;;14.12;100.00;100420.69;4986465;28;20542;-81
2021/09/17 04:59:32;;;;;;;2.63;1.13;;;;;;;14.07;100.00;100420.88;4970819;28;20050;-81
2021/09/17 05:01:58;;;;;;;1.77;1.13;;;;;;;14.05;100.00;100420.94;4984571;28;20053;-81
2021/09/17 05:04:30;;;;;;;2.25;0.90;;;;;;;14.04;100.00;100415.66;4963229;28;20042;-80
2021/09/17 05:06:57;;;;;;;3.75;1.23;;;;;;;14.03;100.00;100420.09;4946756;28;20065;-82
2021/09/17 05:09:26;;;;;;;2.75;0.80;;;;;;;13.94;100.00;100424.91;4979280;28;20105;-82
2021/09/17 05:11:57;;;;;;;1.95;1.02;;;;;;;13.90;100.00;100426.84;4970842;28;20986;-82
2021/09/17 05:14:24;;;;;;;3.75;0.90;;;;;;;13.96;100.00;100431.91;4959157;28;20054;-82
2021/09/17 05:16:50;;;;;;;2.05;1.00;;;;;;;13.85;100.00;100433.22;4972708;28;20050;-82
2021/09/17 05:19:18;;;;;;;1.02;0.88;;;;;;;13.83;100.00;100433.28;4951693;28;20046;-81
2021/09/17 05:21:45;;;;;;;4.68;1.40;;;;;;;13.67;100.00;100434.78;4943239;28;20049;-82
2021/09/17 05:24:11;;;;;;;1.38;1.00;;;;;;;13.69;100.00;100436.44;4957538;28;20042;-82
2021/09/17 05:26:38;;;;;;;1.88;1.08;;;;;;;13.66;100.00;100444.53;4967356;28;20234;-81
2021/09/17 05:29:05;;;;;;;2.58;1.17;;;;;;;13.66;100.00;100430.41;4978225;28;20582;-82
2021/09/17 05:31:32;;;;;;;0.98;0.90;;;;;;;13.62;100.00;100442.03;4971358;28;20134;-80
2021/09/17 05:33:58;;;;;;;2.50;1.23;;;;;;;13.75;100.00;100440.69;4981303;28;20046;-81
2021/09/17 05:36:25;;;;;;;2.67;1.13;;;;;;;13.74;100.00;100445.13;4943917;28;20093;-81
2021/09/17 05:38:51;;;;;;;2.03;1.13;;;;;;;13.72;100.00;100433.69;4971567;28;20042;-81
2021/09/17 05:41:18;;;;;;;1.45;0.90;;;;;;;13.70;100.00;100440.84;4974658;28;20411;-80
2021/09/17 05:43:45;;;;;;;0.90;0.90;;;;;;;13.73;100.00;100443.41;4943911;28;20043;-80
2021/09/17 05:46:12;;;;;;;1.55;1.00;;;;;;;13.76;100.00;100442.41;4927922;28;20412;-82
2021/09/17 05:48:39;;;;;;;1.20;0.90;;;;;;;13.90;100.00;100442.78;4974149;28;20632;-81
2021/09/17 05:51:05;;;;;;;2.30;1.00;;;;;;;13.82;100.00;100443.97;4975921;28;20042;-80
2021/09/17 05:53:52;;;;;;;2.35;1.27;;;;;;;13.75;100.00;100438.88;4944865;28;20125;-80
2021/09/17 05:56:33;;;;;;;1.23;0.90;;;;;;;13.80;100.00;100436.94;4959593;28;20061;-83
2021/09/17 05:59:04;;;;;;;1.42;1.13;;;;;;;13.89;100.00;100434.88;4967602;28;21350;-83
2021/09/17 06:01:32;;;;;;;1.85;1.00;;;;;;;13.86;100.00;100435.81;4959581;28;20039;-82
2021/09/17 06:03:59;;;;;;;1.60;1.50;;;;;;;13.82;100.00;100438.66;4971040;28;20443;-82
2021/09/17 06:06:26;;;;;;;1.13;0.82;;;;;;;13.80;100.00;100438.72;4932435;28;20121;-82
2021/09/17 06:08:53;;;;;;;1.67;0.90;;;;;;;13.86;100.00;100441.13;4947373;28;20514;-82
2021/09/17 06:11:20;;;;;;;1.45;1.17;;;;;;;13.89;100.00;100443.69;4945911;28;20050;-83
2021/09/17 06:13:46;;;;;;;2.30;1.23;;;;;;;13.92;100.00;100446.22;4963949;28;20043;-81
2021/09/17 06:16:13;;;;;;;1.60;1.00;;;;;;;13.87;100.00;100442.00;4953957;28;20055;-82
2021/09/17 06:18:45;;;;;;;0.90;0.90;;;;;;;13.87;100.00;100444.66;4975427;28;20035;-79
2021/09/17 06:21:12;;;;;;;1.80;1.02;;;;;;;13.87;100.00;100445.50;4954723;28;20439;-80
2021/09/17 06:23:41;;;;;;;6.22;1.35;;;;;;;13.94;100.00;100444.38;4981688;28;20042;-81
2021/09/17 06:26:09;;;;;;;1.90;1.20;;;;;;;13.93;100.00;100439.97;4989778;28;20054;-80
2021/09/17 06:28:36;;;;;;;2.50;1.75;;;;;;;14.01;100.00;100445.00;4943275;28;20577;-79
2021/09/17 06:31:03;;;;;;;1.10;1.00;;;;;;;13.93;100.00;100457.72;4956020;28;20057;-82
2021/09/17 06:33:30;;;;;;;1.15;0.90;;;;;;;13.91;100.00;100454.25;4983510;28;20049;-80
2021/09/17 06:35:56;;;;;;;1.27;0.80;;;;;;;13.91;100.00;100449.81;4945149;28;20046;-82
2021/09/17 06:38:23;;;;;;;1.25;1.13;;;;;;;13.89;100.00;100446.34;4985525;28;20133;-82
2021/09/17 06:40:50;;;;;;;2.72;0.90;;;;;;;13.93;100.00;100450.59;4959040;28;20058;-79
2021/09/17 06:43:17;;;;;;;1.50;0.90;;;;;;;13.95;100.00;100456.72;4974428;28;20540;-81
2021/09/17 06:45:44;;;;;;;1.80;1.23;;;;;;;14.00;100.00;100443.28;4949565;28;20049;-80
2021/09/17 06:48:10;;;;;;;1.63;0.90;;;;;;;14.07;100.00;100453.63;4943228;28;20042;-78
2021/09/17 06:50:37;;;;;;;1.27;0.80;;;;;;;14.12;100.00;100455.22;4977023;28;20047;-80
2021/09/17 06:53:04;;;;;;;1.00;0.70;;;;;;;14.09;100.00;100448.25;4974868;28;20419;-83
2021/09/17 06:55:31;;;;;;;1.45;0.70;;;;;;;14.09;100.00;100442.94;4939056;28;20039;-85
2021/09/17 06:58:00;;;;;;;1.13;0.80;;;;;;;14.08;100.00;100447.38;4953839;28;20051;-87
2021/09/17 07:00:28;;;;;;;1.42;0.80;;;;;;;14.07;100.00;100437.69;4940101;28;20495;-83
2021/09/17 07:02:56;;;;;;;2.25;0.75;;;;;;;14.20;100.00;100442.50;4940513;28;20043;-82
2021/09/17 07:05:24;;;;;;;1.48;0.95;;;;;;;14.17;100.00;100445.28;4972190;28;20121;-83
2021/09/17 07:07:52;;;;;;;1.17;0.70;;;;;;;14.22;100.00;100446.84;4937637;28;20412;-84
2021/09/17 07:10:22;;;;;;;1.30;0.85;;;;;;;14.31;100.00;100441.19;4941299;28;20519;-83
2021/09/17 07:12:49;;;;;;;1.80;1.40;;;;;;;14.18;100.00;100442.56;4957674;28;20045;-83
2021/09/17 07:15:17;;;;;;;4.10;1.13;;;;;;;14.18;100.00;100444.38;4968874;28;20130;-84
2021/09/17 07:17:44;;;;;;;2.63;0.75;;;;;;;14.19;100.00;100444.31;4948453;28;20050;-81
2021/09/17 07:20:11;;;;;;;0.70;0.63;;;;;;;14.26;100.00;100435.16;4941234;28;20134;-83
2021/09/17 07:22:38;;;;;;;0.88;0.70;;;;;;;14.35;100.00;100448.09;4971799;28;20690;-83
2021/09/17 07:25:06;;;;;;;1.02;0.70;;;;;;;14.41;100.00;100449.66;4940421;28;20051;-83
2021/09/17 07:27:33;;;;;;;2.22;0.90;;;;;;;14.39;100.00;100443.53;4970909;28;20511;-83
2021/09/17 07:30:00;;;;;;;1.65;0.70;;;;;;;14.40;100.00;100452.38;4972092;28;20054;-85
2021/09/17 07:32:26;;;;;;;1.02;0.70;;;;;;;14.44;100.00;100452.19;4971713;28;20674;-85
2021/09/17 07:34:54;;;;;;;1.33;0.63;;;;;;;14.20;100.00;100454.00;4929659;28;20065;-82
2021/09/17 07:37:21;;;;;;;0.50;0.50;;;;;;;14.26;100.00;100455.56;4954149;28;20046;-84
2021/09/17 07:39:48;;;;;;;0.75;0.60;;;;;;;14.25;100.00;100464.47;4959146;28;20192;-84
2021/09/17 07:42:15;;;;;;;0.70;0.70;;;;;;;14.37;100.00;100463.97;4953803;28;20057;-85
2021/09/17 07:44:42;;;;;;;1.17;0.70;;;;;;;14.35;100.00;100464.03;4937933;28;20046;-83
2021/09/17 07:47:09;;;;;;;0.73;0.73;;;;;;;14.35;100.00;100466.69;4970129;28;20070;-83
2021/09/17 07:49:36;;;;;;;0.85;0.65;;;;;;;14.34;100.00;100466.75;4974894;28;20039;-83
2021/09/17 07:52:03;;;;;;;1.42;0.68;;;;;;;14.33;100.00;100467.69;4959515;28;20050;-84
2021/09/17 07:54:30;;;;;;;0.50;0.50;;;;;;;14.35;100.00;100472.00;4959165;28;20042;-82
2021/09/17 07:56:56;;;;;;;0.98;0.50;;;;;;;14.38;100.00;100468.38;4979118;28;20047;-83
2021/09/17 07:59:26;;;;;;;1.00;0.80;;;;;;;14.34;100.00;100474.72;4969683;28;20046;-82
2021/09/17 08:01:53;;;;;;;0.90;0.70;;;;;;;14.33;100.00;100473.88;4948157;28;20042;-83
2021/09/17 08:04:20;;;;;;;0.60;0.60;;;;;;;14.35;100.00;100481.78;4965508;28;20043;-82
2021/09/17 08:06:47;;;;;;;1.98;1.00;;;;;;;14.27;100.00;100479.41;4969882;28;20504;-83
2021/09/17 08:09:20;;;;;;;1.48;0.60;;;;;;;14.34;100.00;100490.69;4969724;28;20070;-82
2021/09/17 08:11:49;;;;;;;1.50;0.90;;;;;;;14.10;100.00;100492.47;4970264;28;20042;-84
2021/09/17 08:14:16;;;;;;;1.52;0.80;;;;;;;14.23;100.00;100484.91;4966460;28;20196;-81
2021/09/17 08:16:44;;;;;;;1.45;1.35;;;;;;;14.18;100.00;100481.56;4967355;28;20043;-83
2021/09/17 08:19:11;;;;;;;1.17;0.73;;;;;;;14.23;100.00;100485.78;4969790;28;20049;-82
2021/09/17 08:21:41;;;;;;;0.98;0.77;;;;;;;14.34;100.00;100488.88;4954713;28;20535;-83
2021/09/17 08:24:16;;;;;;;1.65;0.80;;;;;;;14.31;100.00;100488.16;4937860;28;20578;-82
2021/09/17 08:26:49;;;;;;;1.17;0.70;;;;;;;14.31;100.00;100491.66;4948837;28;20089;-82
2021/09/17 08:29:16;;;;;;;0.90;0.73;;;;;;;14.32;100.00;100495.19;4943610;29;20102;-81
2021/09/17 08:31:43;;;;;;;0.77;0.68;;;;;;;14.23;100.00;100490.22;4956204;28;20534;-81
2021/09/17 08:34:10;;;;;;;0.98;0.75;;;;;;;14.21;100.00;100492.06;4969177;28;20051;-82
2021/09/17 08:36:37;;;;;;;1.40;0.80;;;;;;;14.27;100.00;100499.81;4955652;28;20047;-83
2021/09/17 08:39:05;;;;;;;0.65;0.65;;;;;;;14.37;100.00;100496.72;4957559;28;20050;-84
2021/09/17 08:41:33;;;;;;;0.63;0.63;;;;;;;14.37;100.00;100502.03;4973973;28;20047;-83
2021/09/17 08:44:00;;;;;;;1.60;0.60;;;;;;;14.45;100.00;100495.56;4942653;28;20043;-84
2021/09/17 08:46:28;;;;;;;1.35;0.75;;;;;;;14.45;100.00;100501.78;4990618;28;20039;-83
2021/09/17 08:48:59;;;;;;;0.60;0.60;;;;;;;14.48;100.00;100503.47;4984438;28;20074;-83
2021/09/17 08:51:26;;;;;;;1.38;0.73;;;;;;;14.53;100.00;100512.13;4981796;28;20058;-84
2021/09/17 08:53:52;;;;;;;2.28;0.80;;;;;;;14.53;100.00;100510.31;5009097;28;20411;-85
2021/09/17 08:56:19;;;;;;;0.70;0.68;;;;;;;14.50;100.00;100510.47;4960639;28;20055;-82
2021/09/17 08:58:47;;;;;;;1.83;0.80;;;;;;;14.51;100.00;100512.19;4992061;28;20051;-83
2021/09/17 09:01:34;;;;;;;1.17;0.90;;;;;;;14.54;100.00;100508.53;4992636;28;20423;-85
2021/09/17 09:04:04;;;;;;;1.33;0.73;;;;;;;14.52;100.00;100508.59;4946581;28;20046;-85
2021/09/17 09:06:36;;;;;;;0.52;0.52;;;;;;;14.52;100.00;100511.25;4941494;28;20538;-84
2021/09/17 09:09:04;;;;;;;1.55;0.70;;;;;;;14.52;100.00;100505.94;4956647;28;20089;-84
2021/09/17 09:11:31;;;;;;;1.50;0.70;;;;;;;14.53;100.00;100518.31;4957563;28;20047;-84
2021/09/17 09:14:05;;;;;;;1.17;0.90;;;;;;;14.57;99.95;100519.94;4940614;28;20050;-84
2021/09/17 09:16:33;;;;;;;0.75;0.70;;;;;;;14.62;100.00;100512.63;4958460;28;20039;-83
2021/09/17 09:19:19;;;;;;;1.52;0.98;;;;;;;14.67;99.18;100519.56;4940269;28;20058;-82
2021/09/17 09:21:47;;;;;;;1.00;0.68;;;;;;;14.50;98.54;100522.88;4970332;28;20031;-84
2021/09/17 09:24:16;;;;;;;1.08;0.98;;;;;;;14.63;100.00;100517.03;4933919;28;20046;-82
2021/09/17 09:26:45;;;;;;;1.20;0.98;;;;;;;14.62;100.00;100514.41;4973989;28;20069;-83
2021/09/17 09:29:26;;;;;;;0.75;0.75;;;;;;;14.71;99.27;100519.38;4988173;28;20051;-82
2021/09/17 09:31:52;;;;;;;1.00;0.70;;;;;;;14.72;100.00;100523.78;4973855;28;20053;-84
2021/09/17 09:34:21;;;;;;;0.60;0.60;;;;;;;14.74;99.95;100515.75;4973589;28;20051;-83
2021/09/17 09:36:48;;;;;;;0.90;0.75;;;;;;;14.77;100.00;100515.59;4972522;28;20047;-83
2021/09/17 09:39:14;;;;;;;1.33;0.80;;;;;;;14.85;97.19;100517.03;4939461;28;20039;-84
2021/09/17 09:41:41;;;;;;;2.30;1.10;;;;;;;14.82;96.16;100513.63;4957698;28;20522;-84
2021/09/17 09:44:19;;;;;;;0.80;0.70;;;;;;;14.82;98.92;100518.97;4975191;28;20069;-84
2021/09/17 09:46:46;;;;;;;0.65;0.60;;;;;;;14.82;98.67;100516.31;4973090;28;20097;-84
2021/09/17 09:49:22;;;;;;;0.80;0.73;;;;;;;14.86;100.00;100518.75;4975608;28;20042;-84
2021/09/17 09:51:53;;;;;;;0.93;0.80;;;;;;;15.00;98.56;100507.56;4973018;28;20627;-85
2021/09/17 09:54:23;;;;;;;3.33;0.80;;;;;;;15.06;100.00;100509.97;4957068;28;20053;-85
2021/09/17 09:56:51;;;;;;;0.50;0.50;;;;;;;15.09;100.00;100515.16;4954735;28;20047;-84
2021/09/17 09:59:23;;;;;;;0.60;0.60;;;;;;;15.12;100.00;100514.16;4940225;28;20046;-84
2021/09/17 10:01:55;;;;;;;0.77;0.63;;;;;;;15.27;97.17;100518.84;4956000;28;20058;-84
2021/09/17 10:04:23;;;;;;;0.80;0.68;;;;;;;15.27;95.83;100518.00;4955991;28;20089;-85
2021/09/17 10:07:07;;;;;;;0.73;0.70;;;;;;;15.31;94.65;100522.28;4951873;28;20047;-85
2021/09/17 10:09:36;;;;;;;0.90;0.60;;;;;;;15.23;96.86;100524.38;4938114;28;20039;-85
2021/09/17 10:12:04;;;;;;;0.90;0.80;;;;;;;15.25;94.49;100517.19;4953420;28;20054;-84
2021/09/17 10:14:32;;;;;;;0.70;0.70;;;;;;;15.31;95.23;100516.94;4939188;28;20558;-85
2021/09/17 10:16:59;;;;;;;1.52;0.70;;;;;;;15.37;94.92;100524.66;4970528;28;20112;-84
2021/09/17 10:19:27;;;;;;;1.33;0.60;;;;;;;15.23;92.30;100519.94;4956702;28;20411;-82
2021/09/17 10:22:00;;;;;;;0.57;0.57;;;;;;;15.37;95.05;100527.31;4953083;28;20043;-82
2021/09/17 10:24:26;;;;;;;1.05;0.70;;;;;;;15.38;92.31;100518.38;4943126;28;20050;-82
2021/09/17 10:27:05;;;;;;;3.33;0.70;;;;;;;15.42;91.71;100531.53;4958058;28;20050;-81
2021/09/17 10:29:43;;;;;;;0.60;0.60;;;;;;;15.33;90.17;100536.38;4947662;28;20050;-81
2021/09/17 10:32:32;;;;;;;0.68;0.60;;;;;;;15.33;90.70;100525.72;4942154;28;20070;-82
2021/09/17 10:35:16;;;;;;;0.82;0.50;;;;;;;15.26;93.42;100524.25;4957925;28;20046;-82
2021/09/17 10:38:09;;;;;;;0.50;0.50;;;;;;;15.26;92.18;100524.25;4957218;28;20491;-81
2021/09/17 10:40:45;;;;;;;0.80;0.80;;;;;;;15.31;95.29;100524.94;4960975;28;20035;-82
2021/09/17 10:43:14;;;;;;;1.00;0.90;;;;;;;15.32;92.54;100532.84;4957215;28;20510;-81
2021/09/17 10:45:42;;;;;;;0.85;0.60;;;;;;;15.38;94.73;100529.91;4973199;23;20046;-81
2021/09/17 10:48:10;;;;;;;0.52;0.52;;;;;;;15.43;93.38;100533.25;4984595;28;20092;-81
2021/09/17 10:50:40;;;;;;;1.92;0.57;;;;;;;15.49;93.24;100537.47;4970790;28;20048;-80
2021/09/17 10:53:08;;;;;;;0.55;0.55;;;;;;;15.44;93.80;100536.78;4990033;28;20049;-80
2021/09/17 10:55:43;;;;;;;0.70;0.70;;;;;;;15.45;91.52;100531.38;4993777;28;20041;-81
2021/09/17 10:58:28;;;;;;;2.10;0.77;;;;;;;15.61;91.25;100526.28;5014659;28;20050;-80
2021/09/17 11:00:56;;;;;;;;;;;;;;;15.70;92.43;100530.34;5005997;28;20042;-81
2021/09/17 11:03:35;;;;;;;1.63;0.98;;;;;;;15.72;93.17;100532.03;5007758;28;19983;-80
2021/09/17 11:06:26;;;;;;;2.28;0.77;;;;;;;15.80;87.92;100531.69;5001901;28;20073;-79
2021/09/17 11:09:00;;;;;;;1.33;0.65;;;;;;;15.91;92.24;100528.56;5020326;28;20042;-82
2021/09/17 11:11:46;;;;;;;3.50;1.85;;;;;;;16.02;87.39;100536.94;4991642;28;20052;-80
2021/09/17 11:14:20;;;;;;;1.42;1.05;;;;;;;15.97;87.38;100536.25;4974425;28;20455;-79
2021/09/17 11:16:52;;;;;;;1.33;0.80;;;;;;;15.91;86.90;100536.56;4994881;28;20041;-80
2021/09/17 11:19:19;;;;;;;0.88;0.80;;;;;;;15.68;84.99;100532.22;4992652;28;20049;-81
2021/09/17 11:21:48;;;;;;;0.93;0.80;;;;;;;15.87;86.13;100534.94;4990825;28;20045;-81
2021/09/17 11:24:21;;;;;;;1.05;0.70;;;;;;;15.89;87.87;100527.75;5015907;28;20459;-81
2021/09/17 11:26:50;;;;;;;1.05;0.60;;;;;;;15.99;87.81;100529.09;4975490;28;20038;-80